DeKalb, IL

3:50 PM CDT on August 18, 2017 (GMT -0500)
De Kalb Taylor Municipal

Weather History for KDKB - January, 2013

Change the Weather History Date:

Saturday, January 12, 2013

  Actual Average (KARR) Record (KARR)
Temperature  
Mean Temperature 36 °F -  
Max Temperature 48 °F 26 °F 58 °F (2005)
Min Temperature 25 °F 12 °F -2 °F (2009)
Degree Days  
Heating Degree Days 28    
Moisture  
Dew Point 32 °F    
Average Humidity 85    
Maximum Humidity 91    
Minimum Humidity 77    
Precipitation  
Precipitation 0.11 in - - ()
Sea Level Pressure  
Sea Level Pressure 29.87 in    
Wind  
Wind Speed 15 mph (West)    
Max Wind Speed 22 mph    
Max Gust Speed 28 mph    
Visibility 9 miles    
Events Snow    
Averages and records for this station are not official NWS values.
T = Trace of Precipitation, MM = Missing Value Source: NWS Daily Summary

Daily Weather History Graph

Daily Weather History Graph

Search for Another Location

Airport or City:

Trip Planner

Search our weather history database for the weather conditions in past years. The results will help you decide how hot, cold, wet, or windy it might be!

Date:

Astronomy

Jan. 12, 2013 Rise Set
Actual Time 7:21 AM CST 4:45 PM CST
Civil Twilight 6:50 AM CST 5:16 PM CST
Nautical Twilight 6:15 AM CST 5:51 PM CST
Astronomical Twilight 5:42 AM CST 6:24 PM CST
Moon 7:38 AM CST (1/12) 6:16 PM CST (1/12)
Length of Visible Light 10h 26m
Length of Day
9h 24m
New Moon, 1% of the Moon is Illuminated
Jan 12
New Moon
Jan 18
First Quarter
Jan 26
Full
Feb 3
Last Quarter
Feb 10
New

Hourly Weather History & Observations

Time (CST) Temp. Windchill Dew Point Humidity Pressure Visibility Wind Dir Wind Speed Gust Speed Precip Events Conditions
12:15 AM 46.9 °F - 44.2 °F 90% 29.69 in 10.0 mi South 17.3 mph 24.2 mph N/A   Clear
12:35 AM 46.9 °F - 44.2 °F 90% 29.69 in 10.0 mi South 16.1 mph - N/A   Clear
12:55 AM 46.9 °F - 44.2 °F 90% 29.70 in 10.0 mi South 16.1 mph - N/A   Clear
1:15 AM 46.9 °F - 44.2 °F 90% 29.70 in 10.0 mi South 16.1 mph 23.0 mph N/A   Clear
1:35 AM 46.9 °F - 44.2 °F 90% 29.71 in 10.0 mi South 17.3 mph 23.0 mph N/A   Clear
1:55 AM 46.6 °F - 43.9 °F 90% 29.72 in 10.0 mi South 16.1 mph - N/A   Clear
2:15 AM 46.4 °F 40.1 °F 43.7 °F 90% 29.72 in 10.0 mi South 15.0 mph - N/A   Clear
2:35 AM 46.4 °F 40.7 °F 43.7 °F 90% 29.72 in 10.0 mi South 12.7 mph - N/A   Clear
2:55 AM 46.4 °F 39.5 °F 43.7 °F 90% 29.73 in 10.0 mi South 17.3 mph - N/A   Clear
3:15 AM 45.7 °F 39.5 °F 43.2 °F 91% 29.73 in 10.0 mi South 13.8 mph - N/A   Clear
3:35 AM 45.7 °F 39.8 °F 43.0 °F 90% 29.73 in 10.0 mi SSW 12.7 mph - N/A   Clear
3:55 AM 46.0 °F 39.9 °F 43.2 °F 90% 29.72 in 10.0 mi SSW 13.8 mph - N/A   Clear
4:15 AM 46.8 °F - 43.7 °F 89% 29.73 in 10.0 mi SSW 13.8 mph - N/A   Clear
4:35 AM 46.9 °F - 43.7 °F 88% 29.73 in 10.0 mi South 16.1 mph - N/A   Clear
4:55 AM 46.9 °F - 43.5 °F 88% 29.73 in 10.0 mi SSW 16.1 mph - N/A   Clear
5:15 AM 47.7 °F - 43.9 °F 87% 29.74 in 10.0 mi SSW 13.8 mph - N/A   Clear
5:35 AM 47.7 °F - 43.9 °F 87% 29.75 in 10.0 mi SSW 13.8 mph - N/A   Clear
5:55 AM 48.2 °F - 44.1 °F 86% 29.76 in 10.0 mi SSW 13.8 mph - N/A   Clear
6:15 AM 47.7 °F - 43.9 °F 87% 29.77 in 10.0 mi SSW 13.8 mph - N/A   Clear
6:35 AM 48.2 °F - 43.9 °F 85% 29.78 in 10.0 mi SW 13.8 mph - N/A   Clear
6:55 AM 48.2 °F - 43.7 °F 84% 29.80 in 10.0 mi SW 13.8 mph 20.7 mph N/A   Clear
7:15 AM 48.2 °F - 43.3 °F 83% 29.81 in 10.0 mi WSW 13.8 mph 19.6 mph N/A   Clear
7:35 AM 46.0 °F 38.0 °F 41.7 °F 85% 29.84 in 10.0 mi West 21.9 mph - N/A   Scattered Clouds
7:55 AM 41.7 °F 34.4 °F 36.7 °F 82% 29.86 in 7.0 mi West 13.8 mph - N/A   Clear
8:15 AM 40.1 °F 30.7 °F 34.5 °F 80% 29.87 in 7.0 mi WSW 19.6 mph 24.2 mph N/A   Clear
8:35 AM 38.1 °F 28.4 °F 32.5 °F 80% 29.89 in 10.0 mi WSW 18.4 mph 26.5 mph N/A   Clear
8:55 AM 36.9 °F 27.1 °F 32.9 °F 86% 29.90 in 10.0 mi WSW 17.3 mph - N/A   Clear
9:15 AM 36.5 °F 26.7 °F 32.4 °F 85% 29.90 in 10.0 mi West 17.3 mph - N/A   Clear
9:35 AM 35.8 °F 26.1 °F 32.0 °F 86% 29.91 in 10.0 mi West 16.1 mph 20.7 mph N/A   Clear
9:55 AM 35.2 °F 25.4 °F 31.1 °F 85% 29.93 in 10.0 mi WSW 16.1 mph - N/A   Clear
10:15 AM 35.1 °F 26.4 °F 31.6 °F 87% 29.93 in 10.0 mi West 12.7 mph 18.4 mph N/A   Clear
10:35 AM 35.1 °F 27.4 °F 31.6 °F 87% 29.94 in 10.0 mi West 10.4 mph - N/A   Clear
10:55 AM 35.1 °F 25.2 °F 31.5 °F 87% 29.94 in 10.0 mi WSW 16.1 mph - N/A   Clear
11:15 AM 35.1 °F 25.2 °F 31.1 °F 85% 29.93 in 10.0 mi WSW 16.1 mph 20.7 mph N/A   Scattered Clouds
11:35 AM 33.8 °F 23.5 °F 30.2 °F 87% 29.92 in 10.0 mi West 16.1 mph - N/A   Clear
11:55 AM 34.0 °F 24.6 °F 29.8 °F 85% 29.93 in 10.0 mi WSW 13.8 mph - N/A   Clear
12:15 PM 34.0 °F 24.2 °F 29.1 °F 82% 29.92 in 10.0 mi West 15.0 mph - N/A   Clear
12:35 PM 34.0 °F 24.2 °F 29.5 °F 84% 29.93 in 10.0 mi West 15.0 mph 18.4 mph N/A   Clear
12:55 PM 33.8 °F 25.3 °F 29.7 °F 85% 29.93 in 10.0 mi WSW 11.5 mph - N/A   Clear
1:35 PM 32.9 °F 22.8 °F 27.9 °F 82% 29.93 in 10.0 mi West 15.0 mph - N/A   Clear
1:55 PM 32.5 °F 23.2 °F 27.5 °F 82% 29.94 in 10.0 mi West 12.7 mph - N/A   Clear
2:15 PM 32.0 °F 20.8 °F 26.4 °F 80% 29.92 in 10.0 mi WNW 17.3 mph - N/A   Scattered Clouds
2:35 PM 31.6 °F 22.1 °F 26.1 °F 80% 29.94 in 10.0 mi West 12.7 mph - N/A   Scattered Clouds
2:55 PM 30.9 °F 20.2 °F 25.0 °F 79% 29.94 in 10.0 mi West 15.0 mph - N/A   Mostly Cloudy
3:15 PM 30.6 °F 21.2 °F 24.8 °F 79% 29.96 in 10.0 mi West 11.5 mph - N/A   Scattered Clouds
3:35 PM 30.6 °F 20.2 °F 25.0 °F 80% 29.99 in 10.0 mi West 13.8 mph - N/A   Scattered Clouds
3:55 PM 30.2 °F 20.2 °F 25.7 °F 83% 29.99 in 7.0 mi West 12.7 mph - N/A   Mostly Cloudy
4:15 PM 30.2 °F 19.8 °F 24.6 °F 80% 29.97 in 10.0 mi West 13.8 mph - N/A   Overcast
4:35 PM 29.8 °F 19.3 °F 23.5 °F 77% 29.98 in 10.0 mi West 13.8 mph - N/A   Mostly Cloudy
4:55 PM 29.3 °F 19.6 °F 23.0 °F 77% 29.97 in 10.0 mi West 11.5 mph - N/A   Mostly Cloudy
5:15 PM 29.3 °F 20.8 °F 23.7 °F 80% 29.96 in 10.0 mi WNW 9.2 mph - N/A   Overcast
5:35 PM 29.3 °F 20.8 °F 23.5 °F 79% 29.95 in 10.0 mi WNW 9.2 mph - N/A   Overcast
5:55 PM 29.3 °F 21.5 °F 24.1 °F 81% 29.93 in 10.0 mi NW 8.1 mph - N/A   Overcast
6:15 PM 29.1 °F 24.1 °F 23.2 °F 78% 29.92 in 10.0 mi NW 4.6 mph - N/A   Overcast
6:35 PM 29.1 °F 23.0 °F 23.4 °F 79% 29.93 in 10.0 mi NW 5.8 mph - N/A   Overcast
6:55 PM 29.3 °F 23.2 °F 23.2 °F 78% 29.93 in 10.0 mi NW 5.8 mph - N/A   Overcast
7:15 PM 29.1 °F 23.0 °F 23.5 °F 80% 29.96 in 10.0 mi WNW 5.8 mph - N/A   Overcast
7:35 PM 29.1 °F 20.6 °F 23.5 °F 80% 29.97 in 10.0 mi WNW 9.2 mph - N/A   Overcast
7:55 PM 28.9 °F 17.7 °F 23.9 °F 81% 29.94 in 10.0 mi NW 15.0 mph 19.6 mph N/A Snow Light Snow
8:15 PM 28.0 °F 16.1 °F 23.0 °F 81% 29.94 in 10.0 mi NW 16.1 mph 24.2 mph N/A Snow Light Snow
8:35 PM 27.9 °F 14.4 °F 23.5 °F 84% 29.93 in 7.0 mi NW 20.7 mph - N/A Snow Light Snow
8:55 PM 27.1 °F 14.9 °F 23.0 °F 84% 29.94 in 4.0 mi NW 16.1 mph 27.6 mph N/A Snow Light Snow
9:15 PM 26.6 °F 13.8 °F 23.0 °F 86% 29.93 in 4.0 mi NW 17.3 mph 23.0 mph 0.01 in Snow Light Snow
9:35 PM 26.2 °F 15.2 °F 22.8 °F 87% 29.93 in 4.0 mi NNW 12.7 mph 19.6 mph 0.02 in Snow Light Snow
9:55 PM 25.7 °F 15.1 °F 22.8 °F 89% 29.91 in 5.0 mi NNW 11.5 mph 16.1 mph 0.02 in Snow Light Snow
10:15 PM 25.9 °F 14.8 °F 22.8 °F 88% 29.89 in 5.0 mi North 12.7 mph 17.3 mph N/A   Overcast
10:35 PM 26.6 °F 16.8 °F 23.4 °F 88% 29.89 in 4.0 mi NNW 10.4 mph - 0.01 in Snow Light Snow
10:55 PM 27.1 °F 17.5 °F 23.9 °F 88% 29.90 in 3.0 mi NNW 10.4 mph - 0.05 in Snow Light Snow
11:15 PM 26.6 °F 16.2 °F 23.4 °F 88% 29.89 in 3.0 mi NNW 11.5 mph - 0.02 in Snow Light Snow
11:35 PM 26.1 °F 15.0 °F 23.0 °F 88% 29.89 in 4.0 mi NNW 12.7 mph - 0.03 in Snow Light Snow
11:55 PM 25.2 °F 13.9 °F 22.1 °F 88% 29.89 in 4.0 mi NW 12.7 mph - 0.04 in Snow Light Snow